sensor_id;sensor_type;location;lat;lon;timestamp;P1;durP1;ratioP1;P2;durP2;ratioP2
18196;SDS011;9224;52.422;13.024;2024-03-02T00:00:30;349.17;;;169.13;;
18196;SDS011;9224;52.422;13.024;2024-03-02T00:02:57;431.50;;;191.20;;
18196;SDS011;9224;52.422;13.024;2024-03-02T00:05:24;302.53;;;156.97;;
18196;SDS011;9224;52.422;13.024;2024-03-02T00:07:52;519.33;;;222.23;;
18196;SDS011;9224;52.422;13.024;2024-03-02T00:10:21;329.40;;;163.07;;
18196;SDS011;9224;52.422;13.024;2024-03-02T00:12:50;502.83;;;212.47;;
18196;SDS011;9224;52.422;13.024;2024-03-02T00:15:26;585.67;;;260.63;;
18196;SDS011;9224;52.422;13.024;2024-03-02T00:18:06;654.30;;;302.03;;
18196;SDS011;9224;52.422;13.024;2024-03-02T00:20:33;647.30;;;302.87;;
18196;SDS011;9224;52.422;13.024;2024-03-02T00:23:02;623.07;;;284.57;;
18196;SDS011;9224;52.422;13.024;2024-03-02T00:25:35;646.97;;;302.07;;
18196;SDS011;9224;52.422;13.024;2024-03-02T00:28:02;602.53;;;268.07;;
18196;SDS011;9224;52.422;13.024;2024-03-02T00:33:29;640.13;;;287.30;;
18196;SDS011;9224;52.422;13.024;2024-03-02T00:35:57;554.77;;;237.03;;
18196;SDS011;9224;52.422;13.024;2024-03-02T00:38:25;524.43;;;222.37;;
18196;SDS011;9224;52.422;13.024;2024-03-02T00:40:53;681.67;;;372.23;;
18196;SDS011;9224;52.422;13.024;2024-03-02T00:43:38;558.07;;;242.83;;
18196;SDS011;9224;52.422;13.024;2024-03-02T00:46:07;759.97;;;308.43;;
18196;SDS011;9224;52.422;13.024;2024-03-02T00:48:34;569.10;;;246.60;;
18196;SDS011;9224;52.422;13.024;2024-03-02T00:51:01;743.73;;;330.50;;
18196;SDS011;9224;52.422;13.024;2024-03-02T00:53:28;590.73;;;259.53;;
18196;SDS011;9224;52.422;13.024;2024-03-02T00:55:56;645.33;;;277.87;;
18196;SDS011;9224;52.422;13.024;2024-03-02T00:58:23;1045.10;;;358.70;;
18196;SDS011;9224;52.422;13.024;2024-03-02T01:00:49;986.13;;;312.67;;
18196;SDS011;9224;52.422;13.024;2024-03-02T01:03:17;349.20;;;165.67;;
18196;SDS011;9224;52.422;13.024;2024-03-02T01:05:44;407.13;;;182.50;;
18196;SDS011;9224;52.422;13.024;2024-03-02T01:08:11;457.17;;;199.87;;
18196;SDS011;9224;52.422;13.024;2024-03-02T01:10:38;429.10;;;190.53;;
18196;SDS011;9224;52.422;13.024;2024-03-02T01:13:05;469.60;;;202.07;;
18196;SDS011;9224;52.422;13.024;2024-03-02T01:15:31;473.23;;;205.93;;
18196;SDS011;9224;52.422;13.024;2024-03-02T01:17:58;496.53;;;216.30;;
18196;SDS011;9224;52.422;13.024;2024-03-02T01:20:26;507.57;;;217.07;;
18196;SDS011;9224;52.422;13.024;2024-03-02T01:22:53;436.10;;;192.57;;
18196;SDS011;9224;52.422;13.024;2024-03-02T01:25:20;442.33;;;195.53;;
18196;SDS011;9224;52.422;13.024;2024-03-02T01:27:47;504.20;;;219.03;;
18196;SDS011;9224;52.422;13.024;2024-03-02T01:30:13;480.63;;;206.90;;
18196;SDS011;9224;52.422;13.024;2024-03-02T01:32:40;525.90;;;230.07;;
18196;SDS011;9224;52.422;13.024;2024-03-02T01:35:07;454.70;;;200.23;;
18196;SDS011;9224;52.422;13.024;2024-03-02T01:37:35;457.40;;;202.57;;
18196;SDS011;9224;52.422;13.024;2024-03-02T01:40:02;485.47;;;210.27;;
18196;SDS011;9224;52.422;13.024;2024-03-02T01:42:34;457.10;;;196.90;;
18196;SDS011;9224;52.422;13.024;2024-03-02T01:45:01;527.80;;;229.57;;
18196;SDS011;9224;52.422;13.024;2024-03-02T01:47:28;430.23;;;190.13;;
18196;SDS011;9224;52.422;13.024;2024-03-02T01:49:55;554.83;;;243.90;;
18196;SDS011;9224;52.422;13.024;2024-03-02T01:52:22;576.43;;;254.70;;
18196;SDS011;9224;52.422;13.024;2024-03-02T01:54:50;757.67;;;318.73;;
18196;SDS011;9224;52.422;13.024;2024-03-02T01:57:16;544.67;;;236.30;;
18196;SDS011;9224;52.422;13.024;2024-03-02T01:59:43;727.67;;;370.60;;
18196;SDS011;9224;52.422;13.024;2024-03-02T02:02:12;634.97;;;292.30;;
18196;SDS011;9224;52.422;13.024;2024-03-02T02:04:39;750.03;;;286.02;;
18196;SDS011;9224;52.422;13.024;2024-03-02T02:07:06;753.72;;;301.98;;
18196;SDS011;9224;52.422;13.024;2024-03-02T02:09:32;515.77;;;220.63;;
18196;SDS011;9224;52.422;13.024;2024-03-02T02:12:01;423.10;;;185.90;;
18196;SDS011;9224;52.422;13.024;2024-03-02T02:14:28;351.23;;;166.77;;
18196;SDS011;9224;52.422;13.024;2024-03-02T02:16:55;347.03;;;165.90;;
18196;SDS011;9224;52.422;13.024;2024-03-02T02:19:22;327.43;;;161.03;;
18196;SDS011;9224;52.422;13.024;2024-03-02T02:21:50;339.53;;;165.13;;
18196;SDS011;9224;52.422;13.024;2024-03-02T02:24:16;356.80;;;170.90;;
18196;SDS011;9224;52.422;13.024;2024-03-02T02:26:43;467.07;;;204.30;;
18196;SDS011;9224;52.422;13.024;2024-03-02T02:29:10;344.03;;;165.40;;
18196;SDS011;9224;52.422;13.024;2024-03-02T02:31:37;329.00;;;161.20;;
18196;SDS011;9224;52.422;13.024;2024-03-02T02:34:04;418.00;;;187.43;;
18196;SDS011;9224;52.422;13.024;2024-03-02T02:36:31;372.67;;;175.57;;
18196;SDS011;9224;52.422;13.024;2024-03-02T02:38:59;320.63;;;160.87;;
18196;SDS011;9224;52.422;13.024;2024-03-02T02:41:28;290.23;;;156.23;;
18196;SDS011;9224;52.422;13.024;2024-03-02T02:43:55;292.40;;;155.97;;
18196;SDS011;9224;52.422;13.024;2024-03-02T02:46:21;291.93;;;156.63;;
18196;SDS011;9224;52.422;13.024;2024-03-02T02:48:48;274.63;;;153.10;;
18196;SDS011;9224;52.422;13.024;2024-03-02T02:51:16;270.53;;;151.90;;
18196;SDS011;9224;52.422;13.024;2024-03-02T02:53:43;468.73;;;204.57;;
18196;SDS011;9224;52.422;13.024;2024-03-02T02:56:11;723.40;;;235.87;;
18196;SDS011;9224;52.422;13.024;2024-03-02T02:58:37;437.30;;;194.07;;
18196;SDS011;9224;52.422;13.024;2024-03-02T03:01:06;732.50;;;200.27;;
18196;SDS011;9224;52.422;13.024;2024-03-02T03:03:32;736.67;;;206.07;;
18196;SDS011;9224;52.422;13.024;2024-03-02T03:05:59;447.80;;;198.33;;
18196;SDS011;9224;52.422;13.024;2024-03-02T03:08:26;342.63;;;168.00;;
18196;SDS011;9224;52.422;13.024;2024-03-02T03:10:52;696.87;;;279.27;;
18196;SDS011;9224;52.422;13.024;2024-03-02T03:13:20;543.63;;;241.70;;
18196;SDS011;9224;52.422;13.024;2024-03-02T03:15:47;788.97;;;315.15;;
18196;SDS011;9224;52.422;13.024;2024-03-02T03:18:14;714.53;;;205.33;;
18196;SDS011;9224;52.422;13.024;2024-03-02T03:20:41;384.67;;;182.40;;
18196;SDS011;9224;52.422;13.024;2024-03-02T03:23:07;366.50;;;180.07;;
18196;SDS011;9224;52.422;13.024;2024-03-02T03:25:34;381.43;;;187.60;;
18196;SDS011;9224;52.422;13.024;2024-03-02T03:28:01;434.90;;;203.23;;
18196;SDS011;9224;52.422;13.024;2024-03-02T03:30:29;501.13;;;225.93;;
18196;SDS011;9224;52.422;13.024;2024-03-02T03:32:56;503.13;;;226.03;;
18196;SDS011;9224;52.422;13.024;2024-03-02T03:35:23;501.37;;;222.00;;
18196;SDS011;9224;52.422;13.024;2024-03-02T03:37:50;446.20;;;206.77;;
18196;SDS011;9224;52.422;13.024;2024-03-02T03:40:17;621.23;;;290.70;;
18196;SDS011;9224;52.422;13.024;2024-03-02T03:42:44;491.73;;;220.60;;
18196;SDS011;9224;52.422;13.024;2024-03-02T03:45:10;508.23;;;232.77;;
18196;SDS011;9224;52.422;13.024;2024-03-02T03:47:38;502.90;;;228.47;;
18196;SDS011;9224;52.422;13.024;2024-03-02T03:50:05;584.73;;;278.70;;
18196;SDS011;9224;52.422;13.024;2024-03-02T03:52:33;581.93;;;276.97;;
18196;SDS011;9224;52.422;13.024;2024-03-02T03:54:59;551.73;;;254.93;;
18196;SDS011;9224;52.422;13.024;2024-03-02T03:57:26;510.23;;;232.00;;
18196;SDS011;9224;52.422;13.024;2024-03-02T03:59:53;528.73;;;244.20;;
18196;SDS011;9224;52.422;13.024;2024-03-02T04:02:19;538.07;;;251.43;;
18196;SDS011;9224;52.422;13.024;2024-03-02T04:04:47;632.60;;;322.67;;
18196;SDS011;9224;52.422;13.024;2024-03-02T04:07:14;688.10;;;203.77;;
18196;SDS011;9224;52.422;13.024;2024-03-02T04:09:41;601.20;;;197.33;;
18196;SDS011;9224;52.422;13.024;2024-03-02T04:12:07;614.33;;;270.90;;
18196;SDS011;9224;52.422;13.024;2024-03-02T04:14:34;678.03;;;333.37;;
18196;SDS011;9224;52.422;13.024;2024-03-02T04:17:00;513.73;;;105.53;;
18196;SDS011;9224;52.422;13.024;2024-03-02T04:19:27;529.70;;;233.37;;
18196;SDS011;9224;52.422;13.024;2024-03-02T04:21:55;483.07;;;219.40;;
18196;SDS011;9224;52.422;13.024;2024-03-02T04:24:22;844.50;;;579.03;;
18196;SDS011;9224;52.422;13.024;2024-03-02T04:26:48;590.40;;;266.07;;
18196;SDS011;9224;52.422;13.024;2024-03-02T04:29:15;683.30;;;336.07;;
18196;SDS011;9224;52.422;13.024;2024-03-02T04:31:42;621.40;;;297.27;;
18196;SDS011;9224;52.422;13.024;2024-03-02T04:34:08;367.37;;;180.83;;
18196;SDS011;9224;52.422;13.024;2024-03-02T04:36:35;528.63;;;238.03;;
18196;SDS011;9224;52.422;13.024;2024-03-02T04:39:03;656.83;;;322.77;;
18196;SDS011;9224;52.422;13.024;2024-03-02T04:41:34;580.20;;;164.17;;
18196;SDS011;9224;52.422;13.024;2024-03-02T04:44:01;418.57;;;200.53;;
18196;SDS011;9224;52.422;13.024;2024-03-02T04:46:28;368.10;;;188.03;;
18196;SDS011;9224;52.422;13.024;2024-03-02T04:48:54;725.93;;;378.17;;
18196;SDS011;9224;52.422;13.024;2024-03-02T04:51:22;365.00;;;188.50;;
18196;SDS011;9224;52.422;13.024;2024-03-02T04:53:48;466.63;;;218.07;;
18196;SDS011;9224;52.422;13.024;2024-03-02T04:56:16;670.60;;;330.37;;
18196;SDS011;9224;52.422;13.024;2024-03-02T04:59:05;570.40;;;151.83;;
18196;SDS011;9224;52.422;13.024;2024-03-02T05:01:32;650.67;;;313.17;;
18196;SDS011;9224;52.422;13.024;2024-03-02T05:03:58;570.10;;;253.83;;
18196;SDS011;9224;52.422;13.024;2024-03-02T05:06:25;627.83;;;282.73;;
18196;SDS011;9224;52.422;13.024;2024-03-02T05:08:52;670.53;;;344.37;;
18196;SDS011;9224;52.422;13.024;2024-03-02T05:11:20;636.70;;;301.03;;
18196;SDS011;9224;52.422;13.024;2024-03-02T05:14:13;561.50;;;254.40;;
18196;SDS011;9224;52.422;13.024;2024-03-02T05:16:39;515.87;;;230.03;;
18196;SDS011;9224;52.422;13.024;2024-03-02T05:19:06;362.33;;;187.10;;
18196;SDS011;9224;52.422;13.024;2024-03-02T05:21:33;380.20;;;184.73;;
18196;SDS011;9224;52.422;13.024;2024-03-02T05:24:00;642.60;;;302.93;;
18196;SDS011;9224;52.422;13.024;2024-03-02T05:26:28;882.73;;;317.17;;
18196;SDS011;9224;52.422;13.024;2024-03-02T05:28:55;836.70;;;365.00;;
18196;SDS011;9224;52.422;13.024;2024-03-02T05:31:22;649.80;;;313.30;;
18196;SDS011;9224;52.422;13.024;2024-03-02T05:33:48;982.07;;;455.97;;
18196;SDS011;9224;52.422;13.024;2024-03-02T05:36:15;499.93;;;225.23;;
18196;SDS011;9224;52.422;13.024;2024-03-02T05:38:41;464.63;;;215.87;;
18196;SDS011;9224;52.422;13.024;2024-03-02T05:41:08;500.87;;;225.23;;
18196;SDS011;9224;52.422;13.024;2024-03-02T05:43:36;540.80;;;244.27;;
18196;SDS011;9224;52.422;13.024;2024-03-02T05:46:03;537.30;;;248.67;;
18196;SDS011;9224;52.422;13.024;2024-03-02T05:48:29;457.63;;;209.77;;
18196;SDS011;9224;52.422;13.024;2024-03-02T05:50:56;523.13;;;237.17;;
18196;SDS011;9224;52.422;13.024;2024-03-02T05:53:23;649.70;;;311.00;;
18196;SDS011;9224;52.422;13.024;2024-03-02T05:55:49;341.80;;;171.60;;
18196;SDS011;9224;52.422;13.024;2024-03-02T05:58:18;358.67;;;180.60;;
18196;SDS011;9224;52.422;13.024;2024-03-02T06:00:57;414.07;;;196.20;;
18196;SDS011;9224;52.422;13.024;2024-03-02T06:03:24;355.10;;;175.57;;
18196;SDS011;9224;52.422;13.024;2024-03-02T06:05:51;390.67;;;185.50;;
18196;SDS011;9224;52.422;13.024;2024-03-02T06:08:18;379.27;;;182.27;;
18196;SDS011;9224;52.422;13.024;2024-03-02T06:10:44;356.83;;;175.47;;
18196;SDS011;9224;52.422;13.024;2024-03-02T06:13:11;312.17;;;165.93;;
18196;SDS011;9224;52.422;13.024;2024-03-02T06:15:38;313.77;;;166.70;;
18196;SDS011;9224;52.422;13.024;2024-03-02T06:18:06;340.10;;;172.17;;
18196;SDS011;9224;52.422;13.024;2024-03-02T06:20:33;365.67;;;177.40;;
18196;SDS011;9224;52.422;13.024;2024-03-02T06:23:00;432.10;;;200.23;;
18196;SDS011;9224;52.422;13.024;2024-03-02T06:25:27;433.20;;;199.63;;
18196;SDS011;9224;52.422;13.024;2024-03-02T06:27:54;427.77;;;199.93;;
18196;SDS011;9224;52.422;13.024;2024-03-02T06:30:20;525.00;;;236.87;;
18196;SDS011;9224;52.422;13.024;2024-03-02T06:32:47;540.67;;;247.63;;
18196;SDS011;9224;52.422;13.024;2024-03-02T06:35:15;561.43;;;265.73;;
18196;SDS011;9224;52.422;13.024;2024-03-02T06:37:42;530.70;;;240.70;;
18196;SDS011;9224;52.422;13.024;2024-03-02T06:40:08;499.60;;;219.33;;
18196;SDS011;9224;52.422;13.024;2024-03-02T06:42:35;472.73;;;212.20;;
18196;SDS011;9224;52.422;13.024;2024-03-02T06:45:02;469.47;;;207.47;;
18196;SDS011;9224;52.422;13.024;2024-03-02T06:47:29;536.30;;;116.13;;
18196;SDS011;9224;52.422;13.024;2024-03-02T06:49:58;502.33;;;231.93;;
18196;SDS011;9224;52.422;13.024;2024-03-02T06:52:26;489.43;;;222.43;;
18196;SDS011;9224;52.422;13.024;2024-03-02T06:54:53;538.07;;;179.90;;
18196;SDS011;9224;52.422;13.024;2024-03-02T06:57:20;421.33;;;197.83;;
18196;SDS011;9224;52.422;13.024;2024-03-02T06:59:46;495.90;;;222.97;;
18196;SDS011;9224;52.422;13.024;2024-03-02T07:02:15;408.03;;;193.27;;
18196;SDS011;9224;52.422;13.024;2024-03-02T07:04:41;587.33;;;287.73;;
18196;SDS011;9224;52.422;13.024;2024-03-02T07:07:09;548.67;;;268.30;;
18196;SDS011;9224;52.422;13.024;2024-03-02T07:12:19;886.03;;;414.23;;
18196;SDS011;9224;52.422;13.024;2024-03-02T07:14:46;391.47;;;188.77;;
18196;SDS011;9224;52.422;13.024;2024-03-02T07:17:36;494.87;;;210.37;;
18196;SDS011;9224;52.422;13.024;2024-03-02T07:20:03;404.10;;;194.57;;
18196;SDS011;9224;52.422;13.024;2024-03-02T07:22:31;522.10;;;101.87;;
18196;SDS011;9224;52.422;13.024;2024-03-02T07:24:59;615.73;;;289.90;;
18196;SDS011;9224;52.422;13.024;2024-03-02T07:27:26;649.90;;;314.80;;
18196;SDS011;9224;52.422;13.024;2024-03-02T07:29:53;868.23;;;336.73;;
18196;SDS011;9224;52.422;13.024;2024-03-02T07:32:19;469.40;;;211.13;;
18196;SDS011;9224;52.422;13.024;2024-03-02T07:34:46;616.67;;;294.00;;
18196;SDS011;9224;52.422;13.024;2024-03-02T07:37:12;907.17;;;387.43;;
18196;SDS011;9224;52.422;13.024;2024-03-02T07:39:39;907.63;;;360.70;;
18196;SDS011;9224;52.422;13.024;2024-03-02T07:42:13;855.23;;;257.23;;
18196;SDS011;9224;52.422;13.024;2024-03-02T07:44:40;437.90;;;201.43;;
18196;SDS011;9224;52.422;13.024;2024-03-02T07:47:09;371.27;;;181.03;;
18196;SDS011;9224;52.422;13.024;2024-03-02T07:49:36;427.27;;;200.60;;
18196;SDS011;9224;52.422;13.024;2024-03-02T07:52:03;480.30;;;219.07;;
18196;SDS011;9224;52.422;13.024;2024-03-02T07:54:30;523.53;;;246.43;;
18196;SDS011;9224;52.422;13.024;2024-03-02T07:56:56;332.97;;;176.73;;
18196;SDS011;9224;52.422;13.024;2024-03-02T07:59:25;324.60;;;173.20;;
18196;SDS011;9224;52.422;13.024;2024-03-02T08:01:51;308.70;;;168.73;;
18196;SDS011;9224;52.422;13.024;2024-03-02T08:04:20;309.03;;;167.17;;
18196;SDS011;9224;52.422;13.024;2024-03-02T08:06:47;316.87;;;171.47;;
18196;SDS011;9224;52.422;13.024;2024-03-02T08:09:13;309.43;;;167.93;;
18196;SDS011;9224;52.422;13.024;2024-03-02T08:11:40;299.83;;;168.33;;
18196;SDS011;9224;52.422;13.024;2024-03-02T08:14:06;290.63;;;161.50;;
18196;SDS011;9224;52.422;13.024;2024-03-02T08:16:35;293.97;;;168.43;;
18196;SDS011;9224;52.422;13.024;2024-03-02T08:19:01;286.70;;;163.63;;
18196;SDS011;9224;52.422;13.024;2024-03-02T08:21:28;290.80;;;164.73;;
18196;SDS011;9224;52.422;13.024;2024-03-02T08:23:55;280.70;;;161.97;;
18196;SDS011;9224;52.422;13.024;2024-03-02T08:26:23;289.83;;;163.60;;
18196;SDS011;9224;52.422;13.024;2024-03-02T08:28:49;302.73;;;169.47;;
18196;SDS011;9224;52.422;13.024;2024-03-02T08:31:16;318.27;;;172.43;;
18196;SDS011;9224;52.422;13.024;2024-03-02T08:33:44;303.97;;;167.97;;
18196;SDS011;9224;52.422;13.024;2024-03-02T08:36:11;309.93;;;168.80;;
18196;SDS011;9224;52.422;13.024;2024-03-02T08:38:37;317.97;;;174.07;;
18196;SDS011;9224;52.422;13.024;2024-03-02T08:41:04;327.13;;;173.53;;
18196;SDS011;9224;52.422;13.024;2024-03-02T08:43:31;443.30;;;209.67;;
18196;SDS011;9224;52.422;13.024;2024-03-02T08:45:58;497.17;;;231.43;;
18196;SDS011;9224;52.422;13.024;2024-03-02T08:48:25;525.17;;;244.23;;
18196;SDS011;9224;52.422;13.024;2024-03-02T08:51:05;650.70;;;299.07;;
18196;SDS011;9224;52.422;13.024;2024-03-02T08:53:33;563.90;;;183.57;;
18196;SDS011;9224;52.422;13.024;2024-03-02T08:55:59;654.33;;;340.83;;
18196;SDS011;9224;52.422;13.024;2024-03-02T08:58:26;595.13;;;183.40;;
18196;SDS011;9224;52.422;13.024;2024-03-02T09:00:52;544.43;;;125.43;;
18196;SDS011;9224;52.422;13.024;2024-03-02T09:03:19;527.93;;;240.17;;
18196;SDS011;9224;52.422;13.024;2024-03-02T09:05:46;642.07;;;309.07;;
18196;SDS011;9224;52.422;13.024;2024-03-02T09:08:14;621.97;;;308.17;;
18196;SDS011;9224;52.422;13.024;2024-03-02T09:10:41;673.63;;;339.67;;
18196;SDS011;9224;52.422;13.024;2024-03-02T09:13:07;681.70;;;338.33;;
18196;SDS011;9224;52.422;13.024;2024-03-02T09:15:34;769.67;;;302.73;;
18196;SDS011;9224;52.422;13.024;2024-03-02T09:18:02;588.03;;;116.97;;
18196;SDS011;9224;52.422;13.024;2024-03-02T09:20:30;981.23;;;417.00;;
18196;SDS011;9224;52.422;13.024;2024-03-02T09:22:56;555.97;;;111.57;;
18196;SDS011;9224;52.422;13.024;2024-03-02T09:25:24;642.33;;;193.70;;
18196;SDS011;9224;52.422;13.024;2024-03-02T09:27:51;639.43;;;317.37;;
18196;SDS011;9224;52.422;13.024;2024-03-02T09:30:18;483.23;;;227.27;;
18196;SDS011;9224;52.422;13.024;2024-03-02T09:32:45;409.27;;;202.20;;
18196;SDS011;9224;52.422;13.024;2024-03-02T09:35:11;632.23;;;320.73;;
18196;SDS011;9224;52.422;13.024;2024-03-02T09:37:38;522.07;;;247.93;;
18196;SDS011;9224;52.422;13.024;2024-03-02T09:40:05;514.97;;;243.67;;
18196;SDS011;9224;52.422;13.024;2024-03-02T09:42:34;549.77;;;266.13;;
18196;SDS011;9224;52.422;13.024;2024-03-02T09:45:00;699.53;;;385.47;;
18196;SDS011;9224;52.422;13.024;2024-03-02T09:47:28;719.63;;;411.07;;
18196;SDS011;9224;52.422;13.024;2024-03-02T09:49:54;608.53;;;296.87;;
18196;SDS011;9224;52.422;13.024;2024-03-02T09:52:22;653.03;;;342.17;;
18196;SDS011;9224;52.422;13.024;2024-03-02T09:54:48;577.33;;;118.17;;
18196;SDS011;9224;52.422;13.024;2024-03-02T09:57:15;408.07;;;197.63;;
18196;SDS011;9224;52.422;13.024;2024-03-02T09:59:43;525.93;;;248.80;;
18196;SDS011;9224;52.422;13.024;2024-03-02T10:02:10;516.03;;;242.17;;
18196;SDS011;9224;52.422;13.024;2024-03-02T10:04:37;817.30;;;321.93;;
18196;SDS011;9224;52.422;13.024;2024-03-02T10:07:10;518.53;;;243.43;;
18196;SDS011;9224;52.422;13.024;2024-03-02T10:09:38;548.43;;;149.03;;
18196;SDS011;9224;52.422;13.024;2024-03-02T10:12:05;371.40;;;186.77;;
18196;SDS011;9224;52.422;13.024;2024-03-02T10:14:33;403.10;;;197.23;;
18196;SDS011;9224;52.422;13.024;2024-03-02T10:17:05;367.07;;;186.80;;
18196;SDS011;9224;52.422;13.024;2024-03-02T10:19:36;361.73;;;184.07;;
18196;SDS011;9224;52.422;13.024;2024-03-02T10:22:12;363.73;;;184.63;;
18196;SDS011;9224;52.422;13.024;2024-03-02T10:24:41;366.37;;;185.17;;
18196;SDS011;9224;52.422;13.024;2024-03-02T10:27:09;364.50;;;182.47;;
18196;SDS011;9224;52.422;13.024;2024-03-02T10:29:37;377.73;;;189.30;;
18196;SDS011;9224;52.422;13.024;2024-03-02T10:32:06;375.37;;;188.70;;
18196;SDS011;9224;52.422;13.024;2024-03-02T10:34:35;398.17;;;194.30;;
18196;SDS011;9224;52.422;13.024;2024-03-02T10:37:02;309.33;;;168.23;;
18196;SDS011;9224;52.422;13.024;2024-03-02T10:39:29;384.90;;;189.50;;
18196;SDS011;9224;52.422;13.024;2024-03-02T10:41:57;352.10;;;180.20;;
18196;SDS011;9224;52.422;13.024;2024-03-02T10:44:24;392.53;;;194.40;;
18196;SDS011;9224;52.422;13.024;2024-03-02T10:46:51;418.77;;;205.03;;
18196;SDS011;9224;52.422;13.024;2024-03-02T10:49:20;562.33;;;274.17;;
18196;SDS011;9224;52.422;13.024;2024-03-02T10:51:47;378.73;;;188.47;;
18196;SDS011;9224;52.422;13.024;2024-03-02T10:54:14;315.80;;;170.37;;
18196;SDS011;9224;52.422;13.024;2024-03-02T10:56:41;292.90;;;162.60;;
18196;SDS011;9224;52.422;13.024;2024-03-02T10:59:13;306.47;;;166.10;;
18196;SDS011;9224;52.422;13.024;2024-03-02T11:01:45;303.60;;;166.27;;
18196;SDS011;9224;52.422;13.024;2024-03-02T11:04:15;310.63;;;165.90;;
18196;SDS011;9224;52.422;13.024;2024-03-02T11:06:44;295.33;;;165.00;;
18196;SDS011;9224;52.422;13.024;2024-03-02T11:09:14;385.03;;;192.80;;
18196;SDS011;9224;52.422;13.024;2024-03-02T11:11:42;525.10;;;259.30;;
18196;SDS011;9224;52.422;13.024;2024-03-02T11:14:10;669.50;;;377.67;;
18196;SDS011;9224;52.422;13.024;2024-03-02T11:16:40;662.73;;;351.57;;
18196;SDS011;9224;52.422;13.024;2024-03-02T11:19:09;681.03;;;155.67;;
18196;SDS011;9224;52.422;13.024;2024-03-02T11:21:37;341.93;;;179.50;;
18196;SDS011;9224;52.422;13.024;2024-03-02T11:26:58;288.50;;;161.20;;
18196;SDS011;9224;52.422;13.024;2024-03-02T11:29:44;287.77;;;161.70;;
18196;SDS011;9224;52.422;13.024;2024-03-02T11:32:17;280.67;;;160.13;;
18196;SDS011;9224;52.422;13.024;2024-03-02T11:34:47;253.33;;;152.47;;
18196;SDS011;9224;52.422;13.024;2024-03-02T11:37:15;253.80;;;153.50;;
18196;SDS011;9224;52.422;13.024;2024-03-02T11:39:44;251.93;;;153.53;;
18196;SDS011;9224;52.422;13.024;2024-03-02T11:42:11;249.53;;;154.20;;
18196;SDS011;9224;52.422;13.024;2024-03-02T11:44:42;247.97;;;152.20;;
18196;SDS011;9224;52.422;13.024;2024-03-02T11:47:11;244.70;;;150.97;;
18196;SDS011;9224;52.422;13.024;2024-03-02T11:49:40;240.93;;;151.13;;
18196;SDS011;9224;52.422;13.024;2024-03-02T11:52:11;238.20;;;150.30;;
18196;SDS011;9224;52.422;13.024;2024-03-02T11:54:41;265.13;;;157.67;;
18196;SDS011;9224;52.422;13.024;2024-03-02T11:57:14;264.67;;;156.97;;
18196;SDS011;9224;52.422;13.024;2024-03-02T11:59:41;266.17;;;156.07;;
18196;SDS011;9224;52.422;13.024;2024-03-02T12:02:12;284.27;;;162.80;;
18196;SDS011;9224;52.422;13.024;2024-03-02T12:04:41;290.73;;;162.80;;
18196;SDS011;9224;52.422;13.024;2024-03-02T12:07:08;411.87;;;211.97;;
18196;SDS011;9224;52.422;13.024;2024-03-02T12:09:35;431.40;;;221.40;;
18196;SDS011;9224;52.422;13.024;2024-03-02T12:12:02;350.63;;;183.27;;
18196;SDS011;9224;52.422;13.024;2024-03-02T12:14:31;322.00;;;175.20;;
18196;SDS011;9224;52.422;13.024;2024-03-02T12:16:59;331.80;;;175.00;;
18196;SDS011;9224;52.422;13.024;2024-03-02T12:19:26;636.17;;;374.47;;
18196;SDS011;9224;52.422;13.024;2024-03-02T12:21:54;986.43;;;595.60;;
18196;SDS011;9224;52.422;13.024;2024-03-02T12:24:21;452.43;;;230.10;;
18196;SDS011;9224;52.422;13.024;2024-03-02T12:26:49;712.47;;;498.07;;
18196;SDS011;9224;52.422;13.024;2024-03-02T12:29:16;410.37;;;207.43;;
18196;SDS011;9224;52.422;13.024;2024-03-02T12:31:44;665.87;;;416.40;;
18196;SDS011;9224;52.422;13.024;2024-03-02T12:34:11;288.33;;;161.90;;
18196;SDS011;9224;52.422;13.024;2024-03-02T12:36:38;243.07;;;149.87;;
18196;SDS011;9224;52.422;13.024;2024-03-02T12:39:06;243.77;;;148.53;;
18196;SDS011;9224;52.422;13.024;2024-03-02T12:41:36;257.50;;;152.43;;
18196;SDS011;9224;52.422;13.024;2024-03-02T12:44:03;236.97;;;148.77;;
18196;SDS011;9224;52.422;13.024;2024-03-02T12:46:33;232.93;;;147.10;;
18196;SDS011;9224;52.422;13.024;2024-03-02T12:49:07;242.50;;;149.87;;
18196;SDS011;9224;52.422;13.024;2024-03-02T12:51:34;298.17;;;163.50;;
18196;SDS011;9224;52.422;13.024;2024-03-02T12:54:02;327.60;;;175.93;;
18196;SDS011;9224;52.422;13.024;2024-03-02T12:56:31;439.60;;;227.87;;
18196;SDS011;9224;52.422;13.024;2024-03-02T12:58:59;480.63;;;249.93;;
18196;SDS011;9224;52.422;13.024;2024-03-02T13:01:27;402.53;;;205.27;;
18196;SDS011;9224;52.422;13.024;2024-03-02T13:03:53;631.63;;;317.90;;
18196;SDS011;9224;52.422;13.024;2024-03-02T13:06:24;443.83;;;110.53;;
18196;SDS011;9224;52.422;13.024;2024-03-02T13:08:53;522.33;;;263.53;;
18196;SDS011;9224;52.422;13.024;2024-03-02T13:11:20;554.67;;;296.70;;
18196;SDS011;9224;52.422;13.024;2024-03-02T13:13:47;497.43;;;255.00;;
18196;SDS011;9224;52.422;13.024;2024-03-02T13:16:14;510.70;;;264.30;;
18196;SDS011;9224;52.422;13.024;2024-03-02T13:18:44;380.00;;;196.17;;
18196;SDS011;9224;52.422;13.024;2024-03-02T13:21:11;470.10;;;114.60;;
18196;SDS011;9224;52.422;13.024;2024-03-02T13:23:39;372.00;;;190.47;;
18196;SDS011;9224;52.422;13.024;2024-03-02T13:26:06;405.90;;;207.30;;
18196;SDS011;9224;52.422;13.024;2024-03-02T13:28:36;464.83;;;238.13;;
18196;SDS011;9224;52.422;13.024;2024-03-02T13:31:04;382.43;;;197.53;;
18196;SDS011;9224;52.422;13.024;2024-03-02T13:33:31;301.53;;;166.90;;
18196;SDS011;9224;52.422;13.024;2024-03-02T13:35:59;277.23;;;161.27;;
18196;SDS011;9224;52.422;13.024;2024-03-02T13:38:26;251.17;;;153.37;;
18196;SDS011;9224;52.422;13.024;2024-03-02T13:40:57;262.60;;;156.97;;
18196;SDS011;9224;52.422;13.024;2024-03-02T13:43:25;251.43;;;153.83;;
18196;SDS011;9224;52.422;13.024;2024-03-02T13:45:52;259.37;;;154.03;;
18196;SDS011;9224;52.422;13.024;2024-03-02T13:48:19;237.77;;;149.97;;
18196;SDS011;9224;52.422;13.024;2024-03-02T13:50:47;240.83;;;152.30;;
18196;SDS011;9224;52.422;13.024;2024-03-02T13:53:14;241.17;;;151.27;;
18196;SDS011;9224;52.422;13.024;2024-03-02T13:55:42;250.53;;;154.33;;
18196;SDS011;9224;52.422;13.024;2024-03-02T13:58:10;255.13;;;154.60;;
18196;SDS011;9224;52.422;13.024;2024-03-02T14:00:37;386.33;;;202.27;;
18196;SDS011;9224;52.422;13.024;2024-03-02T14:03:04;245.80;;;152.53;;
18196;SDS011;9224;52.422;13.024;2024-03-02T14:05:32;277.23;;;160.70;;
18196;SDS011;9224;52.422;13.024;2024-03-02T14:07:59;237.90;;;150.80;;